createdAt,value
2023-02-25T00:01:35.394Z,23.67
2023-02-25T00:04:10.140Z,26.83
2023-02-25T00:06:42.827Z,23.48
2023-02-25T00:09:19.477Z,26.60
2023-02-25T00:11:53.088Z,23.33
2023-02-25T00:16:51.371Z,24.20
2023-02-25T00:19:48.374Z,26.02
2023-02-25T00:22:39.305Z,26.17
2023-02-25T00:25:16.797Z,31.25
2023-02-25T00:27:44.592Z,31.77
2023-02-25T00:30:14.811Z,28.27
2023-02-25T00:32:52.234Z,29.35
2023-02-25T00:35:42.863Z,30.92
2023-02-25T00:38:16.324Z,30.48
2023-02-25T00:40:46.307Z,28.20
2023-02-25T00:43:20.718Z,30.58
2023-02-25T00:45:48.976Z,31.08
2023-02-25T00:48:24.215Z,33.00
2023-02-25T00:50:54.070Z,34.03
2023-02-25T00:53:29.162Z,32.92
2023-02-25T00:56:04.320Z,33.45
2023-02-25T00:58:37.681Z,34.10
2023-02-25T01:01:15.356Z,31.23
2023-02-25T01:03:44.824Z,31.27
2023-02-25T01:06:16.446Z,34.22
2023-02-25T01:08:47.382Z,33.00
2023-02-25T01:11:27.622Z,31.77
2023-02-25T01:13:57.611Z,32.67
2023-02-25T01:16:29.450Z,31.42
2023-02-25T01:19:01.658Z,34.17
2023-02-25T01:21:38.178Z,31.15
2023-02-25T01:24:11.519Z,33.40
2023-02-25T01:26:46.048Z,33.53
2023-02-25T01:29:18.713Z,32.22
2023-02-25T01:31:55.815Z,32.95
2023-02-25T01:34:28.884Z,33.90
2023-02-25T01:37:02.039Z,32.50
2023-02-25T01:39:33.121Z,32.58
2023-02-25T01:42:04.915Z,33.67
2023-02-25T01:44:41.856Z,37.35
2023-02-25T01:47:24.932Z,34.38
2023-02-25T01:49:57.353Z,33.73
2023-02-25T01:52:28.251Z,31.65
2023-02-25T01:54:58.196Z,31.60
2023-02-25T01:57:34.515Z,34.65
2023-02-25T02:00:16.219Z,31.02
2023-02-25T02:02:47.379Z,31.65
2023-02-25T02:05:20.449Z,30.83
2023-02-25T02:07:54.247Z,30.50
2023-02-25T02:10:24.324Z,31.05
2023-02-25T02:12:56.781Z,29.77
2023-02-25T02:15:26.192Z,31.42
2023-02-25T02:18:00.541Z,28.33
2023-02-25T02:20:40.599Z,30.17
2023-02-25T02:23:13.196Z,30.98
2023-02-25T02:26:04.854Z,27.30
2023-02-25T02:29:12.969Z,26.63
2023-02-25T02:31:51.467Z,26.98
2023-02-25T02:34:35.341Z,27.92
2023-02-25T02:37:20.135Z,28.27
2023-02-25T02:40:21.118Z,26.45
2023-02-25T02:42:58.514Z,30.48
2023-02-25T02:45:54.820Z,24.92
2023-02-25T02:48:41.510Z,26.58
2023-02-25T02:51:20.112Z,25.80
2023-02-25T02:53:53.277Z,25.48
2023-02-25T02:56:26.971Z,26.88
2023-02-25T03:01:34.579Z,24.77
2023-02-25T03:04:10.343Z,26.05
2023-02-25T03:06:48.270Z,24.38
2023-02-25T03:09:26.954Z,24.55
2023-02-25T03:11:56.516Z,24.40
2023-02-25T03:14:28.762Z,25.08
2023-02-25T03:17:04.712Z,26.53
2023-02-25T03:19:43.932Z,23.00
2023-02-25T03:22:27.888Z,22.65
2023-02-25T03:27:44.052Z,22.83
2023-02-25T03:30:21.744Z,21.30
2023-02-25T03:33:04.323Z,23.30
2023-02-25T03:35:38.295Z,22.45
2023-02-25T03:38:14.388Z,22.75
2023-02-25T03:40:45.709Z,24.02
2023-02-25T03:43:21.341Z,21.23
2023-02-25T03:45:54.761Z,20.63
2023-02-25T03:48:26.954Z,22.40
2023-02-25T03:51:03.121Z,22.65
2023-02-25T03:53:35.692Z,20.92
2023-02-25T03:56:15.054Z,21.38
2023-02-25T03:58:50.499Z,22.42
2023-02-25T04:03:55.503Z,21.70
2023-02-25T04:06:28.367Z,19.63
2023-02-25T04:08:59.052Z,20.00
2023-02-25T04:11:34.774Z,19.92
2023-02-25T04:14:07.885Z,20.85
2023-02-25T04:16:40.222Z,21.08
2023-02-25T04:19:13.353Z,19.50
2023-02-25T04:21:49.764Z,20.35
2023-02-25T04:24:22.429Z,21.02
2023-02-25T04:26:58.341Z,20.48
2023-02-25T04:29:30.792Z,19.75
2023-02-25T04:32:01.027Z,17.92
2023-02-25T04:34:34.257Z,19.40
2023-02-25T04:37:08.744Z,20.50
2023-02-25T04:39:37.439Z,20.42
2023-02-25T04:42:05.600Z,19.80
2023-02-25T04:44:33.043Z,20.02
2023-02-25T04:47:02.660Z,19.80
2023-02-25T04:49:30.537Z,20.33
2023-02-25T04:52:05.480Z,17.92
2023-02-25T04:54:35.023Z,18.13
2023-02-25T04:57:04.516Z,18.98
2023-02-25T04:59:31.987Z,16.98
2023-02-25T05:01:59.349Z,20.90
2023-02-25T05:04:29.152Z,17.70
2023-02-25T05:07:02.011Z,18.33
2023-02-25T05:09:36.934Z,17.03
2023-02-25T05:12:06.955Z,20.05
2023-02-25T05:14:41.586Z,18.17
2023-02-25T05:17:15.791Z,20.38
2023-02-25T05:19:43.204Z,16.95
2023-02-25T05:22:10.589Z,17.70
2023-02-25T05:24:44.372Z,16.92
2023-02-25T05:27:14.616Z,16.45
2023-02-25T05:29:41.883Z,16.90
2023-02-25T05:32:14.989Z,16.50
2023-02-25T05:34:47.442Z,17.80
2023-02-25T05:37:19.928Z,19.40
2023-02-25T05:39:52.586Z,17.27
2023-02-25T05:42:24.163Z,17.20
2023-02-25T05:44:54.573Z,15.90
2023-02-25T05:47:25.492Z,18.90
2023-02-25T05:50:00.128Z,17.25
2023-02-25T05:52:32.542Z,17.15
2023-02-25T05:55:02.569Z,18.08
2023-02-25T05:57:33.077Z,16.55
2023-02-25T06:00:05.031Z,16.58
2023-02-25T06:02:44.611Z,16.75
2023-02-25T06:05:14.599Z,17.15
2023-02-25T06:07:45.685Z,19.45
2023-02-25T06:10:18.137Z,19.10
2023-02-25T06:12:50.628Z,17.95
2023-02-25T06:15:20.815Z,16.42
2023-02-25T06:17:52.443Z,17.42
2023-02-25T06:20:25.371Z,18.67
2023-02-25T06:22:55.831Z,16.50
2023-02-25T06:25:29.936Z,16.85
2023-02-25T06:28:01.161Z,16.90
2023-02-25T06:30:35.364Z,16.52
2023-02-25T06:33:07.370Z,17.98
2023-02-25T06:35:40.427Z,16.55
2023-02-25T06:38:15.730Z,17.70
2023-02-25T06:40:45.384Z,17.45
2023-02-25T06:43:13.784Z,15.75
2023-02-25T06:45:46.989Z,15.48
2023-02-25T06:48:16.797Z,16.38
2023-02-25T06:50:47.103Z,17.23
2023-02-25T06:53:19.882Z,17.13
2023-02-25T06:55:55.913Z,16.88
2023-02-25T06:58:25.803Z,17.25
2023-02-25T07:00:55.407Z,15.73
2023-02-25T07:03:25.988Z,15.73
2023-02-25T07:05:55.742Z,15.88
2023-02-25T07:08:33.686Z,16.55
2023-02-25T07:11:13.405Z,16.23
2023-02-25T07:13:47.169Z,14.45
2023-02-25T07:16:20.525Z,17.88
2023-02-25T07:18:52.810Z,14.77
2023-02-25T07:21:29.313Z,15.55
2023-02-25T07:24:03.802Z,18.00
2023-02-25T07:26:34.332Z,15.93
2023-02-25T07:29:05.893Z,15.27
2023-02-25T07:31:36.452Z,15.63
2023-02-25T07:34:04.688Z,15.48
2023-02-25T07:36:37.631Z,14.98
2023-02-25T07:39:07.501Z,15.37
2023-02-25T07:41:38.352Z,13.60
2023-02-25T07:44:09.741Z,15.30
2023-02-25T07:46:41.345Z,16.10
2023-02-25T07:49:11.991Z,14.77
2023-02-25T07:51:41.745Z,16.10
2023-02-25T07:54:09.279Z,14.73
2023-02-25T07:56:48.048Z,14.13
2023-02-25T07:59:15.338Z,14.00
2023-02-25T08:01:44.218Z,14.20
2023-02-25T08:04:14.630Z,14.65
2023-02-25T08:06:44.182Z,15.18
2023-02-25T08:09:17.212Z,14.57
2023-02-25T08:11:47.405Z,15.93
2023-02-25T08:14:15.089Z,14.07
2023-02-25T08:16:45.168Z,14.82
2023-02-25T08:19:21.522Z,14.40
2023-02-25T08:21:49.033Z,14.45
2023-02-25T08:24:19.465Z,13.93
2023-02-25T08:26:49.447Z,14.23
2023-02-25T08:29:21.763Z,15.18
2023-02-25T08:31:59.280Z,14.07
2023-02-25T08:34:26.817Z,14.43
2023-02-25T08:36:54.561Z,13.57
2023-02-25T08:39:23.256Z,15.05
2023-02-25T08:41:53.030Z,13.85
2023-02-25T08:44:20.965Z,13.60
2023-02-25T08:46:57.073Z,14.15
2023-02-25T08:49:24.712Z,14.45
2023-02-25T08:51:52.374Z,13.48
2023-02-25T08:54:19.993Z,14.07
2023-02-25T08:56:50.517Z,13.63
2023-02-25T08:59:23.745Z,13.73
2023-02-25T09:01:54.269Z,14.65
2023-02-25T09:04:25.161Z,12.55
2023-02-25T09:06:58.578Z,13.65
2023-02-25T09:16:17.702Z,14.07
2023-02-25T09:18:47.094Z,14.63
2023-02-25T09:21:18.670Z,15.98
2023-02-25T09:23:50.389Z,14.52
2023-02-25T09:26:22.016Z,15.63
2023-02-25T09:28:52.413Z,12.88
2023-02-25T09:31:20.170Z,12.82
2023-02-25T09:33:50.007Z,14.05
2023-02-25T09:36:19.160Z,12.82
2023-02-25T09:38:48.860Z,13.38
2023-02-25T09:41:40.228Z,13.52
2023-02-25T09:44:20.936Z,15.05
2023-02-25T09:46:59.560Z,13.70
2023-02-25T09:49:51.820Z,14.68
2023-02-25T09:52:44.397Z,15.45
2023-02-25T09:55:22.093Z,12.73
2023-02-25T09:58:25.264Z,13.82
2023-02-25T10:01:12.180Z,14.02
2023-02-25T10:03:54.782Z,12.55
2023-02-25T10:06:39.192Z,14.02
2023-02-25T10:09:38.114Z,13.65
2023-02-25T10:12:13.412Z,12.88
2023-02-25T10:14:56.926Z,13.50
2023-02-25T10:17:50.230Z,15.95
2023-02-25T10:20:38.653Z,15.17
2023-02-25T10:23:44.192Z,13.65
2023-02-25T10:26:39.093Z,12.63
2023-02-25T10:29:11.982Z,14.48
2023-02-25T10:31:45.671Z,13.53
2023-02-25T10:34:26.430Z,14.57
2023-02-25T10:36:57.412Z,12.15
2023-02-25T10:39:28.739Z,14.27
2023-02-25T10:42:00.715Z,15.65
2023-02-25T10:44:31.107Z,12.77
2023-02-25T10:47:07.907Z,12.80
2023-02-25T10:49:44.322Z,13.23
2023-02-25T10:52:18.084Z,12.48
2023-02-25T10:54:52.992Z,17.25
2023-02-25T10:57:25.942Z,14.75
2023-02-25T11:00:21.728Z,12.75
2023-02-25T11:02:58.320Z,12.13
2023-02-25T11:05:44.947Z,13.65
2023-02-25T11:08:36.335Z,14.18
2023-02-25T11:11:34.181Z,14.20
2023-02-25T11:14:15.200Z,13.15
2023-02-25T11:16:53.072Z,12.15
2023-02-25T11:19:30.858Z,15.57
2023-02-25T11:22:10.994Z,12.80
2023-02-25T11:24:39.744Z,13.32
2023-02-25T11:27:23.310Z,13.10
2023-02-25T11:29:59.664Z,13.45
2023-02-25T11:32:32.471Z,12.38
2023-02-25T11:35:19.564Z,12.43
2023-02-25T11:37:54.765Z,11.80
2023-02-25T11:40:29.083Z,14.25
2023-02-25T11:43:17.142Z,12.23
2023-02-25T11:46:12.070Z,13.23
2023-02-25T11:49:08.942Z,13.20
2023-02-25T11:51:48.308Z,13.50
2023-02-25T11:54:37.205Z,11.70
2023-02-25T11:57:25.891Z,13.25
2023-02-25T12:00:19.350Z,13.80
2023-02-25T12:03:10.030Z,13.35
2023-02-25T12:05:40.332Z,14.23
2023-02-25T12:08:33.147Z,12.90
2023-02-25T12:11:28.964Z,12.70
2023-02-25T12:14:19.947Z,11.43
2023-02-25T12:16:56.104Z,13.82
2023-02-25T12:19:55.269Z,13.60
2023-02-25T12:22:33.878Z,11.82
2023-02-25T12:25:26.124Z,12.30
2023-02-25T12:27:56.037Z,13.88
2023-02-25T12:30:50.882Z,12.85
2023-02-25T12:33:43.647Z,12.82
2023-02-25T12:36:38.671Z,12.13
2023-02-25T12:39:39.546Z,12.63
2023-02-25T12:42:43.824Z,11.95
2023-02-25T12:45:41.235Z,11.63
2023-02-25T12:48:36.906Z,11.75
2023-02-25T12:51:45.754Z,11.90
2023-02-25T12:54:34.314Z,12.32
2023-02-25T12:57:19.780Z,11.38
2023-02-25T12:59:58.482Z,13.60
2023-02-25T13:02:37.916Z,12.85
2023-02-25T13:05:23.190Z,14.35
2023-02-25T13:08:08.016Z,12.68
2023-02-25T13:10:55.024Z,11.50
2023-02-25T13:13:59.833Z,11.32
2023-02-25T13:16:34.011Z,11.60
2023-02-25T13:19:35.079Z,12.27
2023-02-25T13:22:19.375Z,11.32
2023-02-25T13:25:19.314Z,12.38
2023-02-25T13:28:31.112Z,12.60
2023-02-25T13:31:08.931Z,11.82
2023-02-25T13:34:22.084Z,13.43
2023-02-25T13:37:23.871Z,11.60
2023-02-25T13:40:30.381Z,12.43
2023-02-25T13:43:21.434Z,11.57
2023-02-25T13:46:07.433Z,12.10
2023-02-25T13:48:50.230Z,12.43
2023-02-25T13:51:50.387Z,11.77
2023-02-25T13:54:29.353Z,11.13
2023-02-25T13:57:17.904Z,13.30
2023-02-25T14:00:01.742Z,11.32
2023-02-25T14:02:50.957Z,14.20
2023-02-25T14:05:36.843Z,10.68
2023-02-25T14:08:22.090Z,11.73
2023-02-25T14:11:02.488Z,11.15
2023-02-25T14:14:05.178Z,11.57
2023-02-25T14:17:09.623Z,12.02
2023-02-25T14:22:37.319Z,11.32
2023-02-25T14:25:32.883Z,12.45
2023-02-25T14:28:24.494Z,10.70
2023-02-25T14:31:02.458Z,13.02
2023-02-25T14:33:30.499Z,11.18
2023-02-25T14:36:28.540Z,11.40
2023-02-25T14:39:33.312Z,10.85
2023-02-25T14:42:28.821Z,12.65
2023-02-25T14:45:06.405Z,11.90
2023-02-25T14:47:56.995Z,11.73
2023-02-25T14:50:34.397Z,12.77
2023-02-25T14:53:32.628Z,11.00
2023-02-25T14:56:37.858Z,10.60
2023-02-25T14:59:23.927Z,11.93
2023-02-25T15:02:10.751Z,10.88
2023-02-25T15:05:18.198Z,12.55
2023-02-25T15:08:16.268Z,10.25
2023-02-25T15:11:15.047Z,11.80
2023-02-25T15:14:16.115Z,11.45
2023-02-25T15:17:01.354Z,11.63
2023-02-25T15:19:40.725Z,12.77
2023-02-25T15:22:14.128Z,11.13
2023-02-25T15:24:48.144Z,11.38
2023-02-25T15:27:37.388Z,12.23
2023-02-25T15:30:18.801Z,11.18
2023-02-25T15:33:09.400Z,11.75
2023-02-25T15:35:39.458Z,13.15
2023-02-25T15:38:13.620Z,13.40
2023-02-25T15:40:53.281Z,11.90
2023-02-25T15:43:23.853Z,12.38
2023-02-25T15:46:09.599Z,12.02
2023-02-25T15:48:46.742Z,11.02
2023-02-25T15:51:46.378Z,11.65
2023-02-25T15:54:29.497Z,12.68
2023-02-25T15:57:24.543Z,12.63
2023-02-25T16:00:01.276Z,12.27
2023-02-25T16:02:35.176Z,14.40
2023-02-25T16:07:49.896Z,12.75
2023-02-25T16:10:30.474Z,10.23
2023-02-25T16:13:04.096Z,11.20
2023-02-25T16:15:44.857Z,12.30
2023-02-25T16:18:21.851Z,11.55
2023-02-25T16:21:02.435Z,11.02
2023-02-25T16:23:37.267Z,11.68
2023-02-25T16:26:30.743Z,11.50
2023-02-25T16:29:26.138Z,11.13
2023-02-25T16:32:20.558Z,11.43
2023-02-25T16:35:03.298Z,11.95
2023-02-25T16:37:40.323Z,10.10
2023-02-25T16:40:30.504Z,11.98
2023-02-25T16:43:04.443Z,10.55
2023-02-25T16:45:44.277Z,11.57
2023-02-25T16:48:22.949Z,12.90
2023-02-25T16:51:07.366Z,12.60
2023-02-25T16:53:45.610Z,10.45
2023-02-25T16:56:21.917Z,11.85
2023-02-25T16:59:03.419Z,13.23
2023-02-25T17:01:36.408Z,11.00
2023-02-25T17:04:20.642Z,12.75
2023-02-25T17:07:08.994Z,11.43
2023-02-25T17:09:43.524Z,12.88
2023-02-25T17:12:33.774Z,12.38
2023-02-25T17:15:05.840Z,12.07
2023-02-25T17:17:42.682Z,11.23
2023-02-25T17:20:23.443Z,11.77
2023-02-25T17:22:52.513Z,13.05
2023-02-25T17:25:42.767Z,14.73
2023-02-25T17:28:23.661Z,12.00
2023-02-25T17:31:14.236Z,12.70
2023-02-25T17:33:55.422Z,13.68
2023-02-25T17:36:32.376Z,12.98
2023-02-25T17:39:18.058Z,12.70
2023-02-25T17:42:05.856Z,12.32
2023-02-25T17:44:46.635Z,15.30
2023-02-25T17:47:30.192Z,12.85
2023-02-25T17:50:19.313Z,13.63
2023-02-25T17:52:50.197Z,13.77
2023-02-25T17:55:28.304Z,14.13
2023-02-25T17:58:03.675Z,12.95
2023-02-25T18:00:37.985Z,12.63
2023-02-25T18:03:14.383Z,12.88
2023-02-25T18:05:59.901Z,13.05
2023-02-25T18:08:49.920Z,13.60
2023-02-25T18:11:30.751Z,12.73
2023-02-25T18:14:05.206Z,13.63
2023-02-25T18:16:41.058Z,14.10
2023-02-25T18:19:25.290Z,12.98
2023-02-25T18:21:53.008Z,13.55
2023-02-25T18:24:27.339Z,13.10
2023-02-25T18:27:07.704Z,14.07
2023-02-25T18:29:40.641Z,15.00
2023-02-25T18:32:12.836Z,13.05
2023-02-25T18:34:46.009Z,12.73
2023-02-25T18:37:20.818Z,15.00
2023-02-25T18:39:49.561Z,15.75
2023-02-25T18:42:24.389Z,15.45
2023-02-25T18:44:57.834Z,15.85
2023-02-25T18:47:32.478Z,14.70
2023-02-25T18:53:15.416Z,14.70
2023-02-25T18:55:46.010Z,14.82
2023-02-25T18:58:21.252Z,14.15
2023-02-25T19:00:58.668Z,13.02
2023-02-25T19:03:43.719Z,14.05
2023-02-25T19:06:17.385Z,14.50
2023-02-25T19:11:36.722Z,14.35
2023-02-25T19:14:09.998Z,15.70
2023-02-25T19:16:38.270Z,15.27
2023-02-25T19:19:08.392Z,13.85
2023-02-25T19:21:45.038Z,14.90
2023-02-25T19:24:15.677Z,17.75
2023-02-25T19:26:48.808Z,16.98
2023-02-25T19:29:19.794Z,15.07
2023-02-25T19:31:53.225Z,16.23
2023-02-25T19:34:24.864Z,13.68
2023-02-25T19:36:56.746Z,15.10
2023-02-25T19:39:30.800Z,14.80
2023-02-25T19:42:03.469Z,15.73
2023-02-25T19:44:37.391Z,14.43
2023-02-25T19:47:08.032Z,14.07
2023-02-25T19:49:38.756Z,15.05
2023-02-25T19:52:09.139Z,16.13
2023-02-25T19:54:39.476Z,15.13
2023-02-25T19:57:12.195Z,15.05
2023-02-25T19:59:45.506Z,15.20
2023-02-25T20:02:16.346Z,16.60
2023-02-25T20:04:48.960Z,15.07
2023-02-25T20:07:25.293Z,16.77
2023-02-25T20:10:00.317Z,14.43
2023-02-25T20:12:30.324Z,17.02
2023-02-25T20:15:00.389Z,16.35
2023-02-25T20:17:40.971Z,16.73
2023-02-25T20:20:13.985Z,16.63
2023-02-25T20:22:47.292Z,18.23
2023-02-25T20:25:20.096Z,15.70
2023-02-25T20:27:55.911Z,16.17
2023-02-25T20:30:26.797Z,15.05
2023-02-25T20:32:56.895Z,15.65
2023-02-25T20:35:27.710Z,17.02
2023-02-25T20:38:16.333Z,15.20
2023-02-25T20:40:46.202Z,16.25
2023-02-25T20:43:22.186Z,15.85
2023-02-25T20:45:52.919Z,15.45
2023-02-25T20:48:31.935Z,18.30
2023-02-25T20:51:03.098Z,17.05
2023-02-25T20:53:36.820Z,16.27
2023-02-25T20:56:05.482Z,15.88
2023-02-25T20:58:41.137Z,16.60
2023-02-25T21:01:11.851Z,15.60
2023-02-25T21:03:45.608Z,15.70
2023-02-25T21:06:21.685Z,17.17
2023-02-25T21:08:52.470Z,16.90
2023-02-25T21:11:20.928Z,17.92
2023-02-25T21:13:52.240Z,18.92
2023-02-25T21:16:24.425Z,17.75
2023-02-25T21:18:57.756Z,16.60
2023-02-25T21:21:31.674Z,16.10
2023-02-25T21:24:01.729Z,19.00
2023-02-25T21:26:39.275Z,17.00
2023-02-25T21:29:09.154Z,17.42
2023-02-25T21:31:46.725Z,16.73
2023-02-25T21:34:20.088Z,18.85
2023-02-25T21:36:55.890Z,16.77
2023-02-25T21:39:27.904Z,16.13
2023-02-25T21:42:06.252Z,17.48
2023-02-25T21:44:35.957Z,17.60
2023-02-25T21:47:10.006Z,17.20
2023-02-25T21:49:37.492Z,18.60
2023-02-25T21:52:07.496Z,17.42
2023-02-25T21:54:40.379Z,16.75
2023-02-25T21:57:13.880Z,18.35
2023-02-25T21:59:50.601Z,17.42
2023-02-25T22:02:18.855Z,17.42
2023-02-25T22:04:51.645Z,17.42
2023-02-25T22:07:20.852Z,17.80
2023-02-25T22:09:53.001Z,17.38
2023-02-25T22:12:25.038Z,17.30
2023-02-25T22:15:00.124Z,18.55
2023-02-25T22:17:30.334Z,16.80
2023-02-25T22:20:00.751Z,17.75
2023-02-25T22:22:30.520Z,17.45
2023-02-25T22:25:04.582Z,18.55
2023-02-25T22:27:34.795Z,19.10
2023-02-25T22:30:10.887Z,17.90
2023-02-25T22:32:45.854Z,19.02
2023-02-25T22:35:15.987Z,18.25
2023-02-25T22:37:45.790Z,18.67
2023-02-25T22:40:16.941Z,19.13
2023-02-25T22:42:48.137Z,18.40
2023-02-25T22:45:22.018Z,18.30
2023-02-25T22:47:55.504Z,18.35
2023-02-25T22:50:23.237Z,17.25
2023-02-25T22:52:55.314Z,18.35
2023-02-25T22:55:22.853Z,19.00
2023-02-25T22:57:53.316Z,17.92
2023-02-25T23:00:24.022Z,17.73
2023-02-25T23:02:57.007Z,19.13
2023-02-25T23:05:26.676Z,18.77
2023-02-25T23:07:57.452Z,20.23
2023-02-25T23:10:36.058Z,19.58
2023-02-25T23:13:08.856Z,18.80
2023-02-25T23:15:47.898Z,20.07
2023-02-25T23:18:16.470Z,19.83
2023-02-25T23:20:53.520Z,18.80
2023-02-25T23:23:23.529Z,19.88
2023-02-25T23:25:54.377Z,19.05
2023-02-25T23:28:26.619Z,18.77
2023-02-25T23:31:00.317Z,18.60
2023-02-25T23:33:30.165Z,19.23
2023-02-25T23:36:06.096Z,18.52
2023-02-25T23:38:39.040Z,18.65
2023-02-25T23:41:12.090Z,19.38
2023-02-25T23:43:51.358Z,21.63
2023-02-25T23:46:22.221Z,19.17
2023-02-25T23:48:54.677Z,18.98
2023-02-25T23:51:28.375Z,21.00
2023-02-25T23:56:33.670Z,22.10
2023-02-25T23:59:10.503Z,20.98
